sensor_id;sensor_type;location;lat;lon;timestamp;pressure;altitude;pressure_sealevel;temperature;humidity
61287;BME280;56412;53.148;8.204;2022-10-23T00:01:16;101546.44;;;18.47;50.65
61287;BME280;56412;53.148;8.204;2022-10-23T00:03:47;101541.66;;;18.52;50.53
61287;BME280;56412;53.148;8.204;2022-10-23T00:06:15;101538.06;;;18.53;50.47
61287;BME280;56412;53.148;8.204;2022-10-23T00:08:41;101536.19;;;18.55;50.28
61287;BME280;56412;53.148;8.204;2022-10-23T00:11:08;101533.44;;;18.56;50.34
61287;BME280;56412;53.148;8.204;2022-10-23T00:13:35;101538.44;;;18.59;50.45
61287;BME280;56412;53.148;8.204;2022-10-23T00:16:00;101534.88;;;18.60;50.36
61287;BME280;56412;53.148;8.204;2022-10-23T00:18:26;101536.53;;;18.61;50.41
61287;BME280;56412;53.148;8.204;2022-10-23T00:20:51;101529.50;;;18.62;50.31
61287;BME280;56412;53.148;8.204;2022-10-23T00:23:16;101532.97;;;18.63;50.07
61287;BME280;56412;53.148;8.204;2022-10-23T00:25:42;101539.16;;;18.61;50.14
61287;BME280;56412;53.148;8.204;2022-10-23T00:28:07;101530.44;;;18.61;50.18
61287;BME280;56412;53.148;8.204;2022-10-23T00:30:32;101532.38;;;18.59;50.32
61287;BME280;56412;53.148;8.204;2022-10-23T00:32:58;101534.13;;;18.58;50.19
61287;BME280;56412;53.148;8.204;2022-10-23T00:35:23;101525.69;;;18.55;50.20
61287;BME280;56412;53.148;8.204;2022-10-23T00:37:48;101530.19;;;18.53;50.22
61287;BME280;56412;53.148;8.204;2022-10-23T00:40:13;101535.44;;;18.53;50.14
61287;BME280;56412;53.148;8.204;2022-10-23T00:42:39;101531.16;;;18.52;50.32
61287;BME280;56412;53.148;8.204;2022-10-23T00:45:10;101532.25;;;18.49;50.27
61287;BME280;56412;53.148;8.204;2022-10-23T00:47:44;101531.16;;;18.52;50.17
61287;BME280;56412;53.148;8.204;2022-10-23T00:50:09;101526.66;;;18.54;50.05
61287;BME280;56412;53.148;8.204;2022-10-23T00:52:36;101526.16;;;18.49;50.11
61287;BME280;56412;53.148;8.204;2022-10-23T00:55:06;101532.25;;;18.49;50.38
61287;BME280;56412;53.148;8.204;2022-10-23T00:57:31;101529.50;;;18.51;49.82
61287;BME280;56412;53.148;8.204;2022-10-23T00:59:57;101529.75;;;18.48;50.10
61287;BME280;56412;53.148;8.204;2022-10-23T01:02:22;101525.44;;;18.47;49.87
61287;BME280;56412;53.148;8.204;2022-10-23T01:04:47;101526.16;;;18.49;49.93
61287;BME280;56412;53.148;8.204;2022-10-23T01:07:21;101522.72;;;18.48;50.13
61287;BME280;56412;53.148;8.204;2022-10-23T01:10:05;101523.78;;;18.46;50.10
61287;BME280;56412;53.148;8.204;2022-10-23T01:21:03;101515.19;;;18.44;50.22
61287;BME280;56412;53.148;8.204;2022-10-23T01:32:08;101513.03;;;18.37;50.12
61287;BME280;56412;53.148;8.204;2022-10-23T01:35:22;101516.16;;;18.31;50.50
61287;BME280;56412;53.148;8.204;2022-10-23T01:37:34;101527.72;;;18.29;50.47
61287;BME280;56412;53.148;8.204;2022-10-23T01:40:08;101529.63;;;18.27;50.38
61287;BME280;56412;53.148;8.204;2022-10-23T01:42:40;101521.88;;;18.25;50.38
61287;BME280;56412;53.148;8.204;2022-10-23T01:45:13;101518.53;;;18.23;50.53
61287;BME280;56412;53.148;8.204;2022-10-23T01:47:43;101525.47;;;18.24;50.32
61287;BME280;56412;53.148;8.204;2022-10-23T01:50:09;101519.38;;;18.24;50.55
61287;BME280;56412;53.148;8.204;2022-10-23T01:52:37;101524.50;;;18.25;50.55
61287;BME280;56412;53.148;8.204;2022-10-23T01:55:03;101523.53;;;18.26;50.28
61287;BME280;56412;53.148;8.204;2022-10-23T01:57:31;101524.50;;;18.25;50.15
61287;BME280;56412;53.148;8.204;2022-10-23T02:00:03;101516.63;;;18.25;50.21
61287;BME280;56412;53.148;8.204;2022-10-23T02:02:31;101508.75;;;18.25;50.17
61287;BME280;56412;53.148;8.204;2022-10-23T02:05:02;101516.63;;;18.25;49.99
61287;BME280;56412;53.148;8.204;2022-10-23T02:07:33;101515.22;;;18.21;50.20
61287;BME280;56412;53.148;8.204;2022-10-23T02:09:59;101510.22;;;18.18;50.23
61287;BME280;56412;53.148;8.204;2022-10-23T02:15:26;101518.31;;;18.15;49.96
61287;BME280;56412;53.148;8.204;2022-10-23T02:18:07;101514.81;;;18.14;50.29
61287;BME280;56412;53.148;8.204;2022-10-23T02:20:57;101515.44;;;18.18;50.37
61287;BME280;56412;53.148;8.204;2022-10-23T02:23:33;101512.22;;;18.26;50.11
61287;BME280;56412;53.148;8.204;2022-10-23T02:26:07;101508.03;;;18.23;50.19
61287;BME280;56412;53.148;8.204;2022-10-23T02:28:44;101501.63;;;18.16;50.14
61287;BME280;56412;53.148;8.204;2022-10-23T02:31:14;101496.63;;;18.13;50.09
61287;BME280;56412;53.148;8.204;2022-10-23T02:33:43;101485.41;;;18.11;50.13
61287;BME280;56412;53.148;8.204;2022-10-23T02:36:09;101496.25;;;18.06;50.19
61287;BME280;56412;53.148;8.204;2022-10-23T02:38:37;101486.84;;;18.04;49.93
61287;BME280;56412;53.148;8.204;2022-10-23T02:41:07;101479.56;;;17.96;49.76
61287;BME280;56412;53.148;8.204;2022-10-23T02:50:02;101479.06;;;17.80;49.67
61287;BME280;56412;53.148;8.204;2022-10-23T02:52:46;101478.56;;;17.75;50.00
61287;BME280;56412;53.148;8.204;2022-10-23T02:55:27;101472.47;;;17.74;49.83
61287;BME280;56412;53.148;8.204;2022-10-23T02:58:08;101471.84;;;17.70;49.76
61287;BME280;56412;53.148;8.204;2022-10-23T03:00:41;101462.56;;;17.66;49.89
61287;BME280;56412;53.148;8.204;2022-10-23T03:03:14;101461.00;;;17.64;49.93
61287;BME280;56412;53.148;8.204;2022-10-23T03:05:43;101472.69;;;17.60;49.73
61287;BME280;56412;53.148;8.204;2022-10-23T03:08:10;101469.47;;;17.56;49.69
61287;BME280;56412;53.148;8.204;2022-10-23T03:10:37;101473.25;;;17.52;49.79
61287;BME280;56412;53.148;8.204;2022-10-23T03:13:03;101469.31;;;17.46;50.17
61287;BME280;56412;53.148;8.204;2022-10-23T03:15:29;101465.03;;;17.45;50.05
61287;BME280;56412;53.148;8.204;2022-10-23T03:17:54;101455.50;;;17.44;50.03
61287;BME280;56412;53.148;8.204;2022-10-23T03:20:19;101451.09;;;17.45;49.96
61287;BME280;56412;53.148;8.204;2022-10-23T03:22:45;101445.03;;;17.44;49.70
61287;BME280;56412;53.148;8.204;2022-10-23T03:25:10;101442.97;;;17.37;50.15
61287;BME280;56412;53.148;8.204;2022-10-23T03:27:35;101447.63;;;17.33;50.01
61287;BME280;56412;53.148;8.204;2022-10-23T03:30:01;101432.75;;;17.34;49.99
61287;BME280;56412;53.148;8.204;2022-10-23T03:32:27;101439.25;;;17.28;49.89
61287;BME280;56412;53.148;8.204;2022-10-23T03:34:52;101444.00;;;17.23;50.31
61287;BME280;56412;53.148;8.204;2022-10-23T03:37:17;101432.47;;;17.25;50.44
61287;BME280;56412;53.148;8.204;2022-10-23T03:39:43;101431.31;;;17.30;50.13
61287;BME280;56412;53.148;8.204;2022-10-23T03:42:08;101424.06;;;17.33;50.27
61287;BME280;56412;53.148;8.204;2022-10-23T03:44:33;101425.94;;;17.31;49.93
61287;BME280;56412;53.148;8.204;2022-10-23T03:46:59;101437.38;;;17.30;50.22
61287;BME280;56412;53.148;8.204;2022-10-23T03:49:24;101428.31;;;17.34;50.33
61287;BME280;56412;53.148;8.204;2022-10-23T03:51:49;101443.56;;;17.40;50.31
61287;BME280;56412;53.148;8.204;2022-10-23T03:54:23;101439.78;;;17.44;50.13
61287;BME280;56412;53.148;8.204;2022-10-23T03:56:50;101429.31;;;17.44;50.37
61287;BME280;56412;53.148;8.204;2022-10-23T03:59:17;101434.56;;;17.44;50.31
61287;BME280;56412;53.148;8.204;2022-10-23T04:01:42;101430.97;;;17.45;50.55
61287;BME280;56412;53.148;8.204;2022-10-23T04:04:07;101425.84;;;17.44;50.77
61287;BME280;56412;53.148;8.204;2022-10-23T04:06:33;101428.84;;;17.51;50.58
61287;BME280;56412;53.148;8.204;2022-10-23T04:08:59;101420.75;;;17.54;50.62
61287;BME280;56412;53.148;8.204;2022-10-23T04:11:24;101424.56;;;17.61;50.60
61287;BME280;56412;53.148;8.204;2022-10-23T04:13:49;101419.81;;;17.66;50.41
61287;BME280;56412;53.148;8.204;2022-10-23T04:16:15;101433.50;;;17.69;50.55
61287;BME280;56412;53.148;8.204;2022-10-23T04:18:40;101422.81;;;17.73;50.41
61287;BME280;56412;53.148;8.204;2022-10-23T04:21:06;101414.84;;;17.74;50.61
61287;BME280;56412;53.148;8.204;2022-10-23T04:23:31;101415.66;;;17.75;50.62
61287;BME280;56412;53.148;8.204;2022-10-23T04:25:57;101407.66;;;17.76;50.67
61287;BME280;56412;53.148;8.204;2022-10-23T04:28:23;101413.78;;;17.77;50.24
61287;BME280;56412;53.148;8.204;2022-10-23T04:30:48;101406.25;;;17.72;50.49
61287;BME280;56412;53.148;8.204;2022-10-23T04:33:13;101418.63;;;17.70;50.43
61287;BME280;56412;53.148;8.204;2022-10-23T04:35:39;101412.06;;;17.64;50.46
61287;BME280;56412;53.148;8.204;2022-10-23T04:38:04;101415.66;;;17.63;50.46
61287;BME280;56412;53.148;8.204;2022-10-23T04:40:29;101423.75;;;17.60;50.65
61287;BME280;56412;53.148;8.204;2022-10-23T04:42:55;101415.38;;;17.55;50.32
61287;BME280;56412;53.148;8.204;2022-10-23T04:45:20;101408.59;;;17.53;50.56
61287;BME280;56412;53.148;8.204;2022-10-23T04:47:45;101418.25;;;17.52;50.39
61287;BME280;56412;53.148;8.204;2022-10-23T04:50:11;101423.16;;;17.57;50.08
61287;BME280;56412;53.148;8.204;2022-10-23T04:52:36;101420.63;;;17.55;49.92
61287;BME280;56412;53.148;8.204;2022-10-23T04:55:01;101420.75;;;17.54;50.18
61287;BME280;56412;53.148;8.204;2022-10-23T04:57:27;101417.19;;;17.55;50.01
61287;BME280;56412;53.148;8.204;2022-10-23T04:59:52;101417.91;;;17.57;50.16
61287;BME280;56412;53.148;8.204;2022-10-23T05:02:17;101422.56;;;17.53;49.84
61287;BME280;56412;53.148;8.204;2022-10-23T05:04:43;101425.41;;;17.50;49.80
61287;BME280;56412;53.148;8.204;2022-10-23T05:07:08;101415.84;;;17.49;50.07
61287;BME280;56412;53.148;8.204;2022-10-23T05:09:33;101422.78;;;17.50;49.81
61287;BME280;56412;53.148;8.204;2022-10-23T05:11:59;101415.84;;;17.49;49.78
61287;BME280;56412;53.148;8.204;2022-10-23T05:14:24;101411.91;;;17.43;50.01
61287;BME280;56412;53.148;8.204;2022-10-23T05:17:08;101416.09;;;17.46;49.85
61287;BME280;56412;53.148;8.204;2022-10-23T05:19:44;101415.38;;;17.44;50.03
61287;BME280;56412;53.148;8.204;2022-10-23T05:22:21;101416.22;;;17.44;49.72
61287;BME280;56412;53.148;8.204;2022-10-23T05:24:51;101407.88;;;17.39;50.02
61287;BME280;56412;53.148;8.204;2022-10-23T05:27:17;101411.22;;;17.41;50.05
61287;BME280;56412;53.148;8.204;2022-10-23T05:29:43;101413.84;;;17.41;49.99
61287;BME280;56412;53.148;8.204;2022-10-23T05:32:08;101405.25;;;17.39;50.10
61287;BME280;56412;53.148;8.204;2022-10-23T05:34:36;101395.00;;;17.36;49.94
61287;BME280;56412;53.148;8.204;2022-10-23T05:37:04;101381.19;;;17.34;50.00
61287;BME280;56412;53.148;8.204;2022-10-23T05:39:32;101387.50;;;17.32;50.14
61287;BME280;56412;53.148;8.204;2022-10-23T05:41:58;101376.44;;;17.28;50.08
61287;BME280;56412;53.148;8.204;2022-10-23T05:44:23;101378.31;;;17.26;50.09
61287;BME280;56412;53.148;8.204;2022-10-23T05:46:49;101372.16;;;17.27;50.05
61287;BME280;56412;53.148;8.204;2022-10-23T05:49:14;101371.31;;;17.27;49.73
61287;BME280;56412;53.148;8.204;2022-10-23T05:51:39;101368.31;;;17.20;49.82
61287;BME280;56412;53.148;8.204;2022-10-23T05:54:05;101369.28;;;17.19;50.15
61287;BME280;56412;53.148;8.204;2022-10-23T05:56:32;101367.38;;;17.21;50.06
61287;BME280;56412;53.148;8.204;2022-10-23T05:58:58;101366.28;;;17.23;50.11
61287;BME280;56412;53.148;8.204;2022-10-23T06:01:23;101367.25;;;17.22;50.05
61287;BME280;56412;53.148;8.204;2022-10-23T06:03:49;101363.31;;;17.17;50.00
61287;BME280;56412;53.148;8.204;2022-10-23T06:06:15;101361.66;;;17.16;50.16
61287;BME280;56412;53.148;8.204;2022-10-23T06:08:40;101367.13;;;17.13;49.97
61287;BME280;56412;53.148;8.204;2022-10-23T06:11:06;101364.13;;;17.06;50.04
61287;BME280;56412;53.148;8.204;2022-10-23T06:13:35;101372.09;;;17.05;50.03
61287;BME280;56412;53.148;8.204;2022-10-23T06:16:07;101368.50;;;17.06;49.97
61287;BME280;56412;53.148;8.204;2022-10-23T06:18:37;101363.41;;;17.04;49.88
61287;BME280;56412;53.148;8.204;2022-10-23T06:21:02;101371.84;;;17.08;49.80
61287;BME280;56412;53.148;8.204;2022-10-23T06:23:29;101364.81;;;17.08;50.10
61287;BME280;56412;53.148;8.204;2022-10-23T06:25:58;101370.19;;;17.07;49.79
61287;BME280;56412;53.148;8.204;2022-10-23T06:28:24;101358.41;;;17.01;49.88
61287;BME280;56412;53.148;8.204;2022-10-23T06:30:49;101354.72;;;17.03;49.70
61287;BME280;56412;53.148;8.204;2022-10-23T06:33:15;101354.50;;;17.07;49.66
61287;BME280;56412;53.148;8.204;2022-10-23T06:35:40;101352.69;;;17.07;49.96
61287;BME280;56412;53.148;8.204;2022-10-23T06:38:05;101358.75;;;17.08;49.95
61287;BME280;56412;53.148;8.204;2022-10-23T06:40:32;101353.66;;;17.06;50.08
61287;BME280;56412;53.148;8.204;2022-10-23T06:42:58;101360.31;;;17.10;49.99
61287;BME280;56412;53.148;8.204;2022-10-23T06:45:23;101356.28;;;17.17;49.61
61287;BME280;56412;53.148;8.204;2022-10-23T06:47:49;101356.19;;;17.19;49.67
61287;BME280;56412;53.148;8.204;2022-10-23T06:50:15;101350.47;;;17.25;49.48
61287;BME280;56412;53.148;8.204;2022-10-23T06:52:40;101347.75;;;17.27;49.58
61287;BME280;56412;53.148;8.204;2022-10-23T06:55:06;101358.69;;;17.32;49.62
61287;BME280;56412;53.148;8.204;2022-10-23T06:57:32;101363.34;;;17.39;49.68
61287;BME280;56412;53.148;8.204;2022-10-23T06:59:57;101355.13;;;17.44;49.36
61287;BME280;56412;53.148;8.204;2022-10-23T07:02:22;101358.72;;;17.43;49.59
61287;BME280;56412;53.148;8.204;2022-10-23T07:04:47;101354.78;;;17.48;49.52
61287;BME280;56412;53.148;8.204;2022-10-23T07:07:13;101357.41;;;17.48;49.40
61287;BME280;56412;53.148;8.204;2022-10-23T07:09:38;101359.19;;;17.48;49.26
61287;BME280;56412;53.148;8.204;2022-10-23T07:12:03;101364.53;;;17.46;49.78
61287;BME280;56412;53.148;8.204;2022-10-23T07:14:29;101359.94;;;17.50;49.79
61287;BME280;56412;53.148;8.204;2022-10-23T07:16:56;101361.69;;;17.49;49.63
61287;BME280;56412;53.148;8.204;2022-10-23T07:19:21;101362.88;;;17.45;49.91
61287;BME280;56412;53.148;8.204;2022-10-23T07:21:46;101355.28;;;17.54;49.87
61287;BME280;56412;53.148;8.204;2022-10-23T07:24:12;101350.28;;;17.62;49.71
61287;BME280;56412;53.148;8.204;2022-10-23T07:26:37;101351.13;;;17.74;49.79
61287;BME280;56412;53.148;8.204;2022-10-23T07:29:03;101356.13;;;17.77;49.57
61287;BME280;56412;53.148;8.204;2022-10-23T07:31:28;101362.91;;;17.79;49.70
61287;BME280;56412;53.148;8.204;2022-10-23T07:33:53;101361.75;;;17.83;49.45
61287;BME280;56412;53.148;8.204;2022-10-23T07:36:19;101357.91;;;17.87;49.57
61287;BME280;56412;53.148;8.204;2022-10-23T07:38:44;101365.09;;;17.85;49.75
61287;BME280;56412;53.148;8.204;2022-10-23T07:41:10;101362.47;;;17.85;49.76
61287;BME280;56412;53.148;8.204;2022-10-23T07:43:36;101374.72;;;17.96;49.72
61287;BME280;56412;53.148;8.204;2022-10-23T07:46:02;101363.97;;;17.99;49.62
61287;BME280;56412;53.148;8.204;2022-10-23T07:48:28;101362.66;;;18.05;49.30
61287;BME280;56412;53.148;8.204;2022-10-23T07:50:56;101358.16;;;18.07;49.53
61287;BME280;56412;53.148;8.204;2022-10-23T07:53:25;101355.53;;;18.07;49.32
61287;BME280;56412;53.148;8.204;2022-10-23T07:55:52;101349.22;;;18.09;49.73
61287;BME280;56412;53.148;8.204;2022-10-23T07:58:25;101341.69;;;18.16;49.62
61287;BME280;56412;53.148;8.204;2022-10-23T08:00:56;101336.19;;;18.19;49.54
61287;BME280;56412;53.148;8.204;2022-10-23T08:03:24;101334.03;;;18.24;49.56
61287;BME280;56412;53.148;8.204;2022-10-23T08:05:51;101334.47;;;18.29;49.42
61287;BME280;56412;53.148;8.204;2022-10-23T08:08:17;101339.50;;;18.32;49.67
61287;BME280;56412;53.148;8.204;2022-10-23T08:10:44;101341.63;;;18.38;49.49
61287;BME280;56412;53.148;8.204;2022-10-23T08:13:10;101337.22;;;18.39;49.55
61287;BME280;56412;53.148;8.204;2022-10-23T08:15:37;101331.97;;;18.39;49.58
61287;BME280;56412;53.148;8.204;2022-10-23T08:18:02;101325.91;;;18.38;49.68
61287;BME280;56412;53.148;8.204;2022-10-23T08:20:28;101317.78;;;18.42;50.00
61287;BME280;56412;53.148;8.204;2022-10-23T08:22:53;101314.75;;;18.46;49.70
61287;BME280;56412;53.148;8.204;2022-10-23T08:25:19;101323.19;;;18.50;49.74
61287;BME280;56412;53.148;8.204;2022-10-23T08:27:44;101323.06;;;18.63;49.35
61287;BME280;56412;53.148;8.204;2022-10-23T08:30:10;101318.84;;;18.71;49.56
61287;BME280;56412;53.148;8.204;2022-10-23T08:32:35;101311.16;;;18.79;49.50
61287;BME280;56412;53.148;8.204;2022-10-23T08:35:00;101316.75;;;18.86;49.36
61287;BME280;56412;53.148;8.204;2022-10-23T08:37:26;101310.28;;;18.90;49.36
61287;BME280;56412;53.148;8.204;2022-10-23T08:39:51;101321.25;;;18.95;49.26
61287;BME280;56412;53.148;8.204;2022-10-23T08:42:24;101319.00;;;18.91;49.72
61287;BME280;56412;53.148;8.204;2022-10-23T08:47:29;101325.16;;;19.01;49.92
61287;BME280;56412;53.148;8.204;2022-10-23T08:50:05;101322.72;;;19.09;49.86
61287;BME280;56412;53.148;8.204;2022-10-23T08:55:52;101316.47;;;19.31;49.42
61287;BME280;56412;53.148;8.204;2022-10-23T08:58:23;101321.34;;;19.36;49.70
61287;BME280;56412;53.148;8.204;2022-10-23T09:00:56;101320.81;;;19.42;49.56
61287;BME280;56412;53.148;8.204;2022-10-23T09:03:22;101313.78;;;19.52;49.51
61287;BME280;56412;53.148;8.204;2022-10-23T09:11:53;101325.81;;;19.85;49.40
61287;BME280;56412;53.148;8.204;2022-10-23T09:19:33;101322.41;;;20.04;49.35
61287;BME280;56412;53.148;8.204;2022-10-23T09:21:59;101311.63;;;20.17;49.04
61287;BME280;56412;53.148;8.204;2022-10-23T09:24:25;101314.31;;;20.36;48.97
61287;BME280;56412;53.148;8.204;2022-10-23T09:26:55;101324.28;;;20.42;48.59
61287;BME280;56412;53.148;8.204;2022-10-23T09:29:22;101317.47;;;20.50;48.60
61287;BME280;56412;53.148;8.204;2022-10-23T09:31:54;101303.94;;;20.54;48.52
61287;BME280;56412;53.148;8.204;2022-10-23T09:34:22;101301.16;;;20.56;48.62
61287;BME280;56412;53.148;8.204;2022-10-23T09:37:03;101300.03;;;20.58;48.65
61287;BME280;56412;53.148;8.204;2022-10-23T09:39:45;101294.78;;;20.68;48.56
61287;BME280;56412;53.148;8.204;2022-10-23T09:42:28;101289.50;;;20.78;48.49
61287;BME280;56412;53.148;8.204;2022-10-23T09:44:54;101287.97;;;20.85;48.51
61287;BME280;56412;53.148;8.204;2022-10-23T09:47:20;101287.38;;;20.91;48.34
61287;BME280;56412;53.148;8.204;2022-10-23T09:49:55;101281.28;;;21.00;48.36
61287;BME280;56412;53.148;8.204;2022-10-23T09:52:36;101286.94;;;21.05;48.33
61287;BME280;56412;53.148;8.204;2022-10-23T09:55:14;101287.63;;;21.07;48.45
61287;BME280;56412;53.148;8.204;2022-10-23T09:57:44;101280.44;;;21.09;48.66
61287;BME280;56412;53.148;8.204;2022-10-23T10:05:35;101264.59;;;21.19;48.50
61287;BME280;56412;53.148;8.204;2022-10-23T10:08:02;101260.84;;;21.22;48.51
61287;BME280;56412;53.148;8.204;2022-10-23T10:10:40;101252.06;;;21.31;48.70
61287;BME280;56412;53.148;8.204;2022-10-23T10:14:00;101252.72;;;21.43;48.50
61287;BME280;56412;53.148;8.204;2022-10-23T10:21:20;101230.91;;;21.50;48.60
61287;BME280;56412;53.148;8.204;2022-10-23T10:24:08;101233.38;;;21.52;48.24
61287;BME280;56412;53.148;8.204;2022-10-23T10:26:40;101231.16;;;21.57;48.41
61287;BME280;56412;53.148;8.204;2022-10-23T10:29:20;101222.34;;;21.66;48.37
61287;BME280;56412;53.148;8.204;2022-10-23T10:34:40;101218.16;;;21.91;48.16
61287;BME280;56412;53.148;8.204;2022-10-23T10:37:17;101219.13;;;22.08;48.17
61287;BME280;56412;53.148;8.204;2022-10-23T10:45:48;101201.28;;;22.20;47.59
61287;BME280;56412;53.148;8.204;2022-10-23T10:51:05;101201.34;;;22.28;47.45
61287;BME280;56412;53.148;8.204;2022-10-23T10:56:28;101190.47;;;22.31;47.68
61287;BME280;56412;53.148;8.204;2022-10-23T10:58:59;101189.19;;;22.35;47.81
61287;BME280;56412;53.148;8.204;2022-10-23T11:01:30;101183.34;;;22.50;47.50
61287;BME280;56412;53.148;8.204;2022-10-23T11:06:58;101182.72;;;22.82;46.77
61287;BME280;56412;53.148;8.204;2022-10-23T11:09:29;101186.53;;;22.87;46.85
61287;BME280;56412;53.148;8.204;2022-10-23T11:11:55;101181.06;;;23.07;46.50
61287;BME280;56412;53.148;8.204;2022-10-23T11:14:21;101170.84;;;23.12;46.50
61287;BME280;56412;53.148;8.204;2022-10-23T11:19:33;101167.38;;;23.20;46.06
61287;BME280;56412;53.148;8.204;2022-10-23T11:25:24;101169.13;;;23.45;46.05
61287;BME280;56412;53.148;8.204;2022-10-23T11:27:56;101162.69;;;23.48;45.88
61287;BME280;56412;53.148;8.204;2022-10-23T11:33:35;101145.00;;;23.65;45.86
61287;BME280;56412;53.148;8.204;2022-10-23T11:36:12;101129.13;;;23.65;45.81
61287;BME280;56412;53.148;8.204;2022-10-23T11:38:45;101126.50;;;23.56;45.31
61287;BME280;56412;53.148;8.204;2022-10-23T11:41:17;101126.00;;;23.69;45.35
61287;BME280;56412;53.148;8.204;2022-10-23T11:43:50;101108.34;;;23.78;45.22
61287;BME280;56412;53.148;8.204;2022-10-23T11:48:48;101107.88;;;23.74;45.00
61287;BME280;56412;53.148;8.204;2022-10-23T11:51:24;101105.72;;;23.78;45.20
61287;BME280;56412;53.148;8.204;2022-10-23T11:53:52;101100.09;;;23.73;45.33
61287;BME280;56412;53.148;8.204;2022-10-23T11:58:46;101080.56;;;23.66;45.62
61287;BME280;56412;53.148;8.204;2022-10-23T12:01:18;101076.41;;;23.63;45.27
61287;BME280;56412;53.148;8.204;2022-10-23T12:06:23;101059.25;;;23.59;45.46
61287;BME280;56412;53.148;8.204;2022-10-23T12:08:52;101057.44;;;23.84;45.30
61287;BME280;56412;53.148;8.204;2022-10-23T12:11:26;101063.00;;;24.06;44.96
61287;BME280;56412;53.148;8.204;2022-10-23T12:19:47;101038.72;;;23.94;45.30
61287;BME280;56412;53.148;8.204;2022-10-23T12:22:18;101029.00;;;23.94;44.95
61287;BME280;56412;53.148;8.204;2022-10-23T12:30:31;101002.00;;;23.99;45.09
61287;BME280;56412;53.148;8.204;2022-10-23T12:33:25;101004.00;;;23.97;45.55
61287;BME280;56412;53.148;8.204;2022-10-23T12:36:03;100990.81;;;23.89;45.60
61287;BME280;56412;53.148;8.204;2022-10-23T12:38:32;100986.84;;;23.76;45.41
61287;BME280;56412;53.148;8.204;2022-10-23T12:41:03;100971.16;;;23.75;45.30
61287;BME280;56412;53.148;8.204;2022-10-23T12:43:35;100961.72;;;23.72;45.27
61287;BME280;56412;53.148;8.204;2022-10-23T12:48:53;100938.56;;;23.83;45.34
61287;BME280;56412;53.148;8.204;2022-10-23T12:51:28;100944.19;;;23.79;45.27
61287;BME280;56412;53.148;8.204;2022-10-23T12:53:58;100942.38;;;23.55;45.83
61287;BME280;56412;53.148;8.204;2022-10-23T12:56:25;100949.16;;;23.58;45.76
61287;BME280;56412;53.148;8.204;2022-10-23T12:58:55;100935.78;;;23.51;46.14
61287;BME280;56412;53.148;8.204;2022-10-23T13:01:27;100932.66;;;23.56;45.68
61287;BME280;56412;53.148;8.204;2022-10-23T13:03:55;100915.78;;;23.57;45.76
61287;BME280;56412;53.148;8.204;2022-10-23T13:06:41;100924.03;;;23.70;45.68
61287;BME280;56412;53.148;8.204;2022-10-23T13:09:13;100928.34;;;23.63;45.42
61287;BME280;56412;53.148;8.204;2022-10-23T13:12:02;100927.00;;;23.75;45.54
61287;BME280;56412;53.148;8.204;2022-10-23T13:14:35;100924.03;;;23.78;45.59
61287;BME280;56412;53.148;8.204;2022-10-23T13:17:03;100922.19;;;23.79;45.67
61287;BME280;56412;53.148;8.204;2022-10-23T13:19:30;100912.16;;;23.74;45.57
61287;BME280;56412;53.148;8.204;2022-10-23T13:21:56;100899.91;;;23.73;45.64
61287;BME280;56412;53.148;8.204;2022-10-23T13:24:22;100889.81;;;23.61;45.69
61287;BME280;56412;53.148;8.204;2022-10-23T13:26:50;100912.94;;;23.67;45.54
61287;BME280;56412;53.148;8.204;2022-10-23T13:29:17;100941.56;;;23.71;45.94
61287;BME280;56412;53.148;8.204;2022-10-23T13:31:45;100937.28;;;23.54;46.03
61287;BME280;56412;53.148;8.204;2022-10-23T13:34:15;100938.25;;;23.61;45.73
61287;BME280;56412;53.148;8.204;2022-10-23T13:36:50;100921.22;;;23.64;45.75
61287;BME280;56412;53.148;8.204;2022-10-23T13:39:27;100905.00;;;23.67;45.60
61287;BME280;56412;53.148;8.204;2022-10-23T13:41:54;100893.63;;;23.66;45.88
61287;BME280;56412;53.148;8.204;2022-10-23T13:44:23;100872.63;;;23.65;45.82
61287;BME280;56412;53.148;8.204;2022-10-23T13:46:50;100883.03;;;23.66;45.90
61287;BME280;56412;53.148;8.204;2022-10-23T13:49:16;100892.78;;;23.66;45.72
61287;BME280;56412;53.148;8.204;2022-10-23T13:51:43;100884.69;;;23.75;45.58
61287;BME280;56412;53.148;8.204;2022-10-23T13:54:22;100865.50;;;23.73;45.74
61287;BME280;56412;53.148;8.204;2022-10-23T13:56:49;100866.72;;;23.71;45.80
61287;BME280;56412;53.148;8.204;2022-10-23T13:59:15;100863.03;;;23.80;45.58
61287;BME280;56412;53.148;8.204;2022-10-23T14:01:41;100864.06;;;23.71;45.72
61287;BME280;56412;53.148;8.204;2022-10-23T14:04:07;100860.88;;;23.75;45.50
61287;BME280;56412;53.148;8.204;2022-10-23T14:06:33;100857.25;;;23.68;45.70
61287;BME280;56412;53.148;8.204;2022-10-23T14:09:01;100852.00;;;23.60;45.65
61287;BME280;56412;53.148;8.204;2022-10-23T14:11:27;100848.06;;;23.56;45.79
61287;BME280;56412;53.148;8.204;2022-10-23T14:13:52;100854.38;;;23.39;45.47
61287;BME280;56412;53.148;8.204;2022-10-23T14:16:18;100843.59;;;23.48;45.54
61287;BME280;56412;53.148;8.204;2022-10-23T14:18:47;100828.00;;;23.62;45.58
61287;BME280;56412;53.148;8.204;2022-10-23T14:21:13;100818.69;;;23.34;45.75
61287;BME280;56412;53.148;8.204;2022-10-23T14:23:41;100816.38;;;23.40;46.09
61287;BME280;56412;53.148;8.204;2022-10-23T14:26:07;100817.38;;;23.39;46.04
61287;BME280;56412;53.148;8.204;2022-10-23T14:28:34;100806.25;;;23.43;46.09
61287;BME280;56412;53.148;8.204;2022-10-23T14:31:18;100800.81;;;23.45;46.27
61287;BME280;56412;53.148;8.204;2022-10-23T14:33:44;100775.22;;;23.37;46.35
61287;BME280;56412;53.148;8.204;2022-10-23T14:36:10;100762.84;;;23.29;46.58
61287;BME280;56412;53.148;8.204;2022-10-23T14:38:36;100748.66;;;23.30;46.22
61287;BME280;56412;53.148;8.204;2022-10-23T14:41:02;100753.94;;;23.30;46.42